createdAt,value
2019-04-28T00:00:01.391Z,97243.72
2019-04-28T00:00:53.119Z,97234.84
2019-04-28T00:01:45.291Z,97226.80
2019-04-28T00:02:35.760Z,97238.47
2019-04-28T00:03:26.302Z,97243.28
2019-04-28T00:04:16.465Z,97259.65
2019-04-28T00:05:06.727Z,97230.78
2019-04-28T00:05:56.858Z,97245.22
2019-04-28T00:06:47.040Z,97241.32
2019-04-28T00:07:37.678Z,97246.16
2019-04-28T00:08:27.942Z,97261.14
2019-04-28T00:09:18.853Z,97249.30
2019-04-28T00:10:10.990Z,97264.27
2019-04-28T00:10:59.225Z,97277.41
2019-04-28T00:11:51.611Z,97250.24
2019-04-28T00:12:41.289Z,97248.31
2019-04-28T00:13:32.119Z,97259.98
2019-04-28T00:14:21.931Z,97255.30
2019-04-28T00:15:12.354Z,97256.36
2019-04-28T00:16:02.899Z,97264.58
2019-04-28T00:16:53.440Z,97263.42
2019-04-28T00:17:43.706Z,97265.04
2019-04-28T00:18:34.324Z,97269.86
2019-04-28T00:19:23.968Z,97270.10
2019-04-28T00:20:17.324Z,97261.63
2019-04-28T00:21:36.214Z,97261.31
2019-04-28T00:22:31.872Z,97290.34
2019-04-28T00:23:38.527Z,97278.25
2019-04-28T00:25:03.460Z,97289.53
2019-04-28T00:26:03.418Z,97270.10
2019-04-28T00:26:55.999Z,97283.34
2019-04-28T00:27:46.852Z,97269.39
2019-04-28T00:28:37.187Z,97286.16
2019-04-28T00:29:37.613Z,97280.22
2019-04-28T00:30:17.677Z,97278.04
2019-04-28T00:31:08.397Z,97267.32
2019-04-28T00:32:01.082Z,97277.80
2019-04-28T00:32:51.863Z,97287.38
2019-04-28T00:33:41.016Z,97282.71
2019-04-28T00:34:31.190Z,97287.70
2019-04-28T00:35:23.193Z,97293.75
2019-04-28T00:36:11.637Z,97294.66
2019-04-28T00:37:27.104Z,97303.44
2019-04-28T00:38:18.390Z,97309.73
2019-04-28T00:39:08.210Z,97305.69
2019-04-28T00:39:58.422Z,97297.00
2019-04-28T00:40:48.666Z,97305.54
2019-04-28T00:41:39.773Z,97299.60
2019-04-28T00:42:31.496Z,97309.50
2019-04-28T00:43:21.807Z,97312.00
2019-04-28T00:44:12.187Z,97316.67
2019-04-28T00:45:02.215Z,97310.73
2019-04-28T00:45:52.186Z,97300.89
2019-04-28T00:46:42.621Z,97296.88
2019-04-28T00:47:33.427Z,97307.03
2019-04-28T00:48:23.828Z,97310.09
2019-04-28T00:49:13.462Z,97318.87
2019-04-28T00:50:04.560Z,97311.53
2019-04-28T00:50:54.863Z,97319.28
2019-04-28T00:51:45.644Z,97317.66
2019-04-28T00:52:35.532Z,97325.63
2019-04-28T00:53:26.392Z,97318.08
2019-04-28T00:54:16.087Z,97305.04
2019-04-28T00:55:06.114Z,97315.75
2019-04-28T00:55:56.523Z,97315.59
2019-04-28T00:56:46.802Z,97318.62
2019-04-28T00:57:36.979Z,97315.38
2019-04-28T00:58:27.258Z,97307.83
2019-04-28T00:59:17.439Z,97312.84
2019-04-28T01:00:08.709Z,97315.08
2019-04-28T01:01:01.414Z,97310.82
2019-04-28T01:01:56.350Z,97307.59
2019-04-28T01:02:46.710Z,97312.91
2019-04-28T01:03:37.401Z,97316.30
2019-04-28T01:04:27.192Z,97317.98
2019-04-28T01:05:17.296Z,97311.23
2019-04-28T01:06:07.467Z,97313.23
2019-04-28T01:06:57.379Z,97325.30
2019-04-28T01:07:48.112Z,97330.86
2019-04-28T01:08:38.509Z,97326.84
2019-04-28T01:09:28.401Z,97333.20
2019-04-28T01:10:21.001Z,97342.87
2019-04-28T01:11:11.362Z,97345.41
2019-04-28T01:12:01.824Z,97348.25
2019-04-28T01:12:51.002Z,97344.20
2019-04-28T01:13:41.911Z,97366.74
2019-04-28T01:14:31.364Z,97346.30
2019-04-28T01:15:36.553Z,97336.54
2019-04-28T01:16:32.022Z,97342.91
2019-04-28T01:17:25.563Z,97356.66
2019-04-28T01:18:44.343Z,97351.27
2019-04-28T01:19:36.228Z,97351.11
2019-04-28T01:20:26.052Z,97369.50
2019-04-28T01:21:16.414Z,97359.45
2019-04-28T01:22:14.477Z,97353.48
2019-04-28T01:23:04.624Z,97345.62
2019-04-28T01:23:54.717Z,97359.60
2019-04-28T01:24:44.360Z,97355.80
2019-04-28T01:25:34.271Z,97368.20
2019-04-28T01:26:25.062Z,97358.38
2019-04-28T01:27:37.688Z,97375.34
2019-04-28T01:28:29.662Z,97361.20
2019-04-28T01:29:19.516Z,97357.41
2019-04-28T01:30:12.562Z,97348.14
2019-04-28T01:31:21.761Z,97356.68
2019-04-28T01:32:23.418Z,97352.58
2019-04-28T01:33:47.907Z,97373.14
2019-04-28T01:34:37.624Z,97364.47
2019-04-28T01:35:29.181Z,97360.98
2019-04-28T01:36:20.198Z,97370.55
2019-04-28T01:37:09.737Z,97361.88
2019-04-28T01:38:00.126Z,97367.09
2019-04-28T01:38:50.167Z,97368.20
2019-04-28T01:39:41.276Z,97360.81
2019-04-28T01:40:31.480Z,97367.95
2019-04-28T01:41:21.795Z,97357.57
2019-04-28T01:42:12.799Z,97365.22
2019-04-28T01:43:03.320Z,97361.67
2019-04-28T01:43:53.219Z,97371.25
2019-04-28T01:44:43.708Z,97361.67
2019-04-28T01:45:33.786Z,97349.95
2019-04-28T01:46:24.784Z,97360.31
2019-04-28T01:47:14.901Z,97356.20
2019-04-28T01:48:05.053Z,97361.11
2019-04-28T01:48:56.230Z,97355.42
2019-04-28T01:49:46.716Z,97351.63
2019-04-28T01:50:40.006Z,97356.29
2019-04-28T01:51:30.446Z,97360.39
2019-04-28T01:52:20.294Z,97343.98
2019-04-28T01:53:09.818Z,97361.76
2019-04-28T01:54:00.215Z,97348.09
2019-04-28T01:54:50.296Z,97347.83
2019-04-28T01:55:41.174Z,97354.67
2019-04-28T01:56:30.473Z,97349.20
2019-04-28T01:57:21.492Z,97357.96
2019-04-28T01:58:10.325Z,97360.48
2019-04-28T01:59:00.485Z,97350.31
2019-04-28T01:59:50.687Z,97362.95
2019-04-28T02:00:40.651Z,97355.31
2019-04-28T02:01:30.390Z,97356.42
2019-04-28T02:02:20.570Z,97353.44
2019-04-28T02:03:10.762Z,97356.42
2019-04-28T02:04:01.246Z,97353.69
2019-04-28T02:04:52.043Z,97348.53
2019-04-28T02:05:42.592Z,97350.70
2019-04-28T02:06:33.222Z,97347.50
2019-04-28T02:07:24.637Z,97354.33
2019-04-28T02:08:17.926Z,97351.34
2019-04-28T02:09:10.245Z,97355.45
2019-04-28T02:10:00.911Z,97346.13
2019-04-28T02:10:51.985Z,97338.19
2019-04-28T02:11:42.758Z,97340.91
2019-04-28T02:12:32.745Z,97347.75
2019-04-28T02:13:24.784Z,97344.68
2019-04-28T02:14:14.563Z,97338.41
2019-04-28T02:15:05.057Z,97348.78
2019-04-28T02:15:55.199Z,97335.92
2019-04-28T02:16:44.839Z,97339.47
2019-04-28T02:17:34.793Z,97352.83
2019-04-28T02:18:25.594Z,97338.02
2019-04-28T02:19:16.378Z,97347.83
2019-04-28T02:20:07.203Z,97364.49
2019-04-28T02:21:03.428Z,97353.55
2019-04-28T02:22:00.066Z,97345.86
2019-04-28T02:22:54.105Z,97343.67
2019-04-28T02:23:44.785Z,97343.13
2019-04-28T02:24:54.592Z,97340.39
2019-04-28T02:25:46.444Z,97347.44
2019-04-28T02:26:37.059Z,97346.41
2019-04-28T02:27:27.948Z,97345.05
2019-04-28T02:28:19.792Z,97352.91
2019-04-28T02:29:10.209Z,97345.27
2019-04-28T02:30:00.120Z,97346.89
2019-04-28T02:30:53.537Z,97347.70
2019-04-28T02:31:41.946Z,97345.52
2019-04-28T02:32:31.083Z,97352.05
2019-04-28T02:33:21.319Z,97349.56
2019-04-28T02:34:11.925Z,97345.12
2019-04-28T02:35:03.025Z,97345.94
2019-04-28T02:35:53.445Z,97347.80
2019-04-28T02:36:45.474Z,97350.80
2019-04-28T02:37:36.410Z,97344.17
2019-04-28T02:38:26.535Z,97348.23
2019-04-28T02:39:16.581Z,97349.84
2019-04-28T02:40:10.362Z,97347.58
2019-04-28T02:41:00.186Z,97347.83
2019-04-28T02:41:51.203Z,97348.39
2019-04-28T02:42:40.945Z,97345.91
2019-04-28T02:43:30.994Z,97351.03
2019-04-28T02:44:23.513Z,97335.44
2019-04-28T02:45:12.027Z,97350.48
2019-04-28T02:46:02.388Z,97346.88
2019-04-28T02:46:53.837Z,97343.59
2019-04-28T02:47:44.101Z,97340.51
2019-04-28T02:48:34.055Z,97354.44
2019-04-28T02:49:30.644Z,97345.67
2019-04-28T02:50:40.956Z,97366.13
2019-04-28T02:51:32.651Z,97358.95
2019-04-28T02:52:42.369Z,97356.78
2019-04-28T02:53:36.556Z,97355.41
2019-04-28T02:54:26.894Z,97378.92
2019-04-28T02:55:16.738Z,97368.48
2019-04-28T02:56:07.665Z,97354.55
2019-04-28T02:56:57.470Z,97357.28
2019-04-28T02:57:47.755Z,97346.90
2019-04-28T02:58:41.297Z,97344.97
2019-04-28T02:59:30.451Z,97353.17
2019-04-28T03:00:21.328Z,97374.51
2019-04-28T03:01:18.533Z,97357.53
2019-04-28T03:02:00.798Z,97345.53
2019-04-28T03:02:51.511Z,97351.81
2019-04-28T03:03:41.473Z,97346.09
2019-04-28T03:04:32.172Z,97357.84
2019-04-28T03:05:22.315Z,97351.00
2019-04-28T03:06:13.014Z,97347.70
2019-04-28T03:07:03.590Z,97349.63
2019-04-28T03:07:54.508Z,97341.17
2019-04-28T03:08:44.983Z,97343.10
2019-04-28T03:09:35.373Z,97348.91
2019-04-28T03:10:26.031Z,97333.05
2019-04-28T03:11:16.873Z,97350.03
2019-04-28T03:12:07.614Z,97341.83
2019-04-28T03:12:57.631Z,97346.48
2019-04-28T03:13:50.853Z,97347.30
2019-04-28T03:14:43.436Z,97356.61
2019-04-28T03:15:30.315Z,97357.42
2019-04-28T03:16:20.537Z,97360.72
2019-04-28T03:17:10.991Z,97358.55
2019-04-28T03:18:01.914Z,97360.16
2019-04-28T03:18:51.401Z,97355.00
2019-04-28T03:19:41.802Z,97361.84
2019-04-28T03:20:32.095Z,97343.84
2019-04-28T03:21:22.483Z,97356.70
2019-04-28T03:22:13.098Z,97356.70
2019-04-28T03:23:03.715Z,97357.82
2019-04-28T03:23:54.591Z,97370.13
2019-04-28T03:24:46.361Z,97361.67
2019-04-28T03:25:54.490Z,97369.88
2019-04-28T03:26:53.853Z,97358.47
2019-04-28T03:28:02.617Z,97372.92
2019-04-28T03:29:24.729Z,97374.38
2019-04-28T03:30:34.075Z,97362.38
2019-04-28T03:32:18.236Z,97381.34
2019-04-28T03:32:55.441Z,97377.08
2019-04-28T03:33:48.530Z,97377.47
2019-04-28T03:34:47.012Z,97385.98
2019-04-28T03:35:36.923Z,97378.42
2019-04-28T03:36:27.532Z,97375.17
2019-04-28T03:37:17.939Z,97375.81
2019-04-28T03:38:07.959Z,97389.23
2019-04-28T03:39:00.725Z,97383.05
2019-04-28T03:39:50.382Z,97378.69
2019-04-28T03:40:41.402Z,97383.65
2019-04-28T03:41:31.060Z,97383.17
2019-04-28T03:42:21.548Z,97382.92
2019-04-28T03:43:14.187Z,97390.65
2019-04-28T03:44:02.139Z,97376.47
2019-04-28T03:44:52.089Z,97378.40
2019-04-28T03:45:50.253Z,97388.27
2019-04-28T03:46:45.806Z,97380.66
2019-04-28T03:47:36.753Z,97388.66
2019-04-28T03:48:26.937Z,97384.55
2019-04-28T03:49:33.852Z,97388.40
2019-04-28T03:50:24.832Z,97388.17
2019-04-28T03:51:14.853Z,97379.98
2019-04-28T03:52:05.364Z,97384.08
2019-04-28T03:52:56.096Z,97395.02
2019-04-28T03:53:46.307Z,97393.14
2019-04-28T03:54:40.681Z,97401.59
2019-04-28T03:55:34.522Z,97389.03
2019-04-28T03:56:20.913Z,97387.92
2019-04-28T03:57:11.647Z,97387.11
2019-04-28T03:58:02.234Z,97395.88
2019-04-28T03:58:53.078Z,97392.02
2019-04-28T03:59:43.919Z,97385.19
2019-04-28T04:00:34.514Z,97386.00
2019-04-28T04:01:24.574Z,97386.81
2019-04-28T04:02:15.187Z,97396.59
2019-04-28T04:03:05.868Z,97383.52
2019-04-28T04:03:56.661Z,97382.94
2019-04-28T04:04:47.001Z,97388.40
2019-04-28T04:05:40.383Z,97374.98
2019-04-28T04:06:27.899Z,97381.82
2019-04-28T04:07:21.684Z,97382.08
2019-04-28T04:08:11.219Z,97372.25
2019-04-28T04:09:01.100Z,97375.48
2019-04-28T04:10:11.641Z,97381.21
2019-04-28T04:11:10.811Z,97387.71
2019-04-28T04:12:21.234Z,97390.70
2019-04-28T04:13:13.931Z,97390.39
2019-04-28T04:14:14.314Z,97387.11
2019-04-28T04:15:21.458Z,97390.88
2019-04-28T04:16:30.945Z,97391.93
2019-04-28T04:17:34.738Z,97394.66
2019-04-28T04:18:32.940Z,97387.02
2019-04-28T04:19:25.621Z,97379.88
2019-04-28T04:20:20.720Z,97385.91
2019-04-28T04:21:11.065Z,97390.01
2019-04-28T04:22:03.537Z,97386.16
2019-04-28T04:22:53.635Z,97394.58
2019-04-28T04:23:44.914Z,97387.20
2019-04-28T04:24:36.073Z,97392.36
2019-04-28T04:25:31.134Z,97388.51
2019-04-28T04:26:21.261Z,97389.54
2019-04-28T04:27:10.715Z,97398.80
2019-04-28T04:28:03.491Z,97394.95
2019-04-28T04:28:51.500Z,97393.03
2019-04-28T04:29:43.674Z,97394.66
2019-04-28T04:30:33.689Z,97397.30
2019-04-28T04:31:24.391Z,97387.73
2019-04-28T04:32:23.190Z,97396.19
2019-04-28T04:33:05.661Z,97398.59
2019-04-28T04:33:56.095Z,97388.72
2019-04-28T04:34:46.429Z,97388.41
2019-04-28T04:35:37.172Z,97387.85
2019-04-28T04:36:27.918Z,97392.98
2019-04-28T04:37:20.771Z,97392.42
2019-04-28T04:38:11.125Z,97388.02
2019-04-28T04:39:02.291Z,97393.19
2019-04-28T04:39:52.533Z,97396.95
2019-04-28T04:40:43.784Z,97389.55
2019-04-28T04:41:33.838Z,97394.72
2019-04-28T04:42:24.740Z,97397.38
2019-04-28T04:43:14.898Z,97400.91
2019-04-28T04:44:11.163Z,97400.61
2019-04-28T04:45:00.707Z,97391.84
2019-04-28T04:45:52.807Z,97401.89
2019-04-28T04:46:43.342Z,97390.39
2019-04-28T04:47:34.315Z,97395.00
2019-04-28T04:48:24.554Z,97401.84
2019-04-28T04:49:14.828Z,97398.45
2019-04-28T04:50:06.290Z,97399.27
2019-04-28T04:50:57.066Z,97401.11
2019-04-28T04:51:47.603Z,97398.62
2019-04-28T04:52:40.299Z,97406.27
2019-04-28T04:53:30.807Z,97401.86
2019-04-28T04:54:20.479Z,97400.24
2019-04-28T04:55:11.786Z,97408.95
2019-04-28T04:56:02.242Z,97394.47
2019-04-28T04:56:52.717Z,97408.62
2019-04-28T04:57:43.011Z,97408.06
2019-04-28T04:58:34.427Z,97411.61
2019-04-28T04:59:26.696Z,97411.61
2019-04-28T05:00:23.559Z,97405.02
2019-04-28T05:01:40.707Z,97408.78
2019-04-28T05:02:50.802Z,97416.13
2019-04-28T05:03:33.127Z,97405.73
2019-04-28T05:04:51.754Z,97409.84
2019-04-28T05:05:42.518Z,97418.30
2019-04-28T05:06:35.735Z,97417.19
2019-04-28T05:07:26.327Z,97421.04
2019-04-28T05:08:16.755Z,97425.95
2019-04-28T05:09:10.080Z,97444.55
2019-04-28T05:09:59.581Z,97431.73
2019-04-28T05:10:50.321Z,97435.28
2019-04-28T05:11:40.379Z,97436.95
2019-04-28T05:12:31.474Z,97439.94
2019-04-28T05:13:22.048Z,97443.48
2019-04-28T05:14:12.591Z,97438.32
2019-04-28T05:15:05.164Z,97443.57
2019-04-28T05:15:56.222Z,97441.39
2019-04-28T05:16:46.631Z,97443.06
2019-04-28T05:17:37.545Z,97451.02
2019-04-28T05:18:29.782Z,97438.71
2019-04-28T05:19:20.919Z,97438.45
2019-04-28T05:20:12.055Z,97446.45
2019-04-28T05:21:02.839Z,97444.83
2019-04-28T05:21:53.018Z,97441.59
2019-04-28T05:23:03.251Z,97439.41
2019-04-28T05:24:20.098Z,97447.95
2019-04-28T05:25:17.676Z,97453.67
2019-04-28T05:26:11.268Z,97448.51
2019-04-28T05:26:59.645Z,97448.25
2019-04-28T05:27:50.042Z,97454.37
2019-04-28T05:28:50.592Z,97461.77
2019-04-28T05:29:31.890Z,97456.34
2019-04-28T05:30:22.268Z,97456.68
2019-04-28T05:31:20.622Z,97462.16
2019-04-28T05:32:05.632Z,97455.62
2019-04-28T05:32:57.423Z,97457.54
2019-04-28T05:33:46.568Z,97454.81
2019-04-28T05:34:39.842Z,97464.38
2019-04-28T05:35:29.414Z,97457.54
2019-04-28T05:36:20.334Z,97461.90
2019-04-28T05:37:10.754Z,97463.27
2019-04-28T05:38:00.770Z,97471.72
2019-04-28T05:38:51.276Z,97461.59
2019-04-28T05:39:41.920Z,97459.89
2019-04-28T05:40:33.330Z,97465.62
2019-04-28T05:41:24.112Z,97462.87
2019-04-28T05:42:14.412Z,97459.03
2019-04-28T05:43:05.915Z,97460.65
2019-04-28T05:43:59.614Z,97468.30
2019-04-28T05:44:50.957Z,97467.16
2019-04-28T05:45:41.513Z,97464.67
2019-04-28T05:46:32.621Z,97468.22
2019-04-28T05:47:22.616Z,97456.47
2019-04-28T05:48:13.606Z,97472.83
2019-04-28T05:49:15.789Z,97481.25
2019-04-28T05:50:19.740Z,97453.89
2019-04-28T05:51:11.201Z,97463.72
2019-04-28T05:52:07.086Z,97472.99
2019-04-28T05:53:02.592Z,97487.15
2019-04-28T05:54:02.525Z,97470.73
2019-04-28T05:54:57.274Z,97473.42
2019-04-28T05:56:10.366Z,97472.05
2019-04-28T05:57:23.284Z,97480.51
2019-04-28T05:58:35.935Z,97474.45
2019-04-28T05:59:45.617Z,97485.09
2019-04-28T06:00:52.580Z,97479.87
2019-04-28T06:01:57.242Z,97478.20
2019-04-28T06:02:56.510Z,97481.16
2019-04-28T06:03:40.637Z,97475.46
2019-04-28T06:04:31.837Z,97476.23
2019-04-28T06:05:23.381Z,97472.13
2019-04-28T06:06:13.415Z,97482.77
2019-04-28T06:07:10.060Z,97485.77
2019-04-28T06:08:31.529Z,97479.73
2019-04-28T06:09:34.895Z,97476.66
2019-04-28T06:10:25.218Z,97482.33
2019-04-28T06:11:35.340Z,97481.44
2019-04-28T06:12:25.492Z,97487.97
2019-04-28T06:13:16.170Z,97470.99
2019-04-28T06:14:09.932Z,97480.58
2019-04-28T06:15:00.137Z,97494.17
2019-04-28T06:15:49.756Z,97485.09
2019-04-28T06:16:40.603Z,97493.22
2019-04-28T06:17:30.418Z,97485.77
2019-04-28T06:18:20.996Z,97486.49
2019-04-28T06:19:11.970Z,97477.08
2019-04-28T06:20:03.719Z,97492.08
2019-04-28T06:20:54.077Z,97477.74
2019-04-28T06:21:44.890Z,97482.57
2019-04-28T06:22:35.381Z,97481.70
2019-04-28T06:23:28.687Z,97479.38
2019-04-28T06:24:19.167Z,97487.28
2019-04-28T06:25:10.663Z,97489.12
2019-04-28T06:26:01.198Z,97478.67
2019-04-28T06:26:51.652Z,97489.54
2019-04-28T06:27:42.537Z,97486.49
2019-04-28T06:28:32.743Z,97484.23
2019-04-28T06:29:26.998Z,97486.66
2019-04-28T06:30:18.357Z,97477.57
2019-04-28T06:31:08.441Z,97478.59
2019-04-28T06:31:58.563Z,97472.56
2019-04-28T06:32:50.559Z,97477.76
2019-04-28T06:33:44.410Z,97470.10
2019-04-28T06:34:32.233Z,97463.50
2019-04-28T06:35:25.987Z,97484.86
2019-04-28T06:36:16.972Z,97467.83
2019-04-28T06:37:08.449Z,97470.02
2019-04-28T06:37:59.005Z,97470.02
2019-04-28T06:38:50.634Z,97463.66
2019-04-28T06:39:41.107Z,97462.05
2019-04-28T06:40:31.679Z,97470.20
2019-04-28T06:41:22.641Z,97486.86
2019-04-28T06:42:12.947Z,97474.78
2019-04-28T06:43:04.097Z,97467.06
2019-04-28T06:43:55.060Z,97480.42
2019-04-28T06:44:46.137Z,97475.44
2019-04-28T06:45:38.591Z,97464.17
2019-04-28T06:46:29.011Z,97472.86
2019-04-28T06:47:19.601Z,97481.89
2019-04-28T06:48:10.208Z,97486.50
2019-04-28T06:49:00.903Z,97483.50
2019-04-28T06:49:51.317Z,97489.45
2019-04-28T06:50:41.815Z,97492.19
2019-04-28T06:51:32.690Z,97479.86
2019-04-28T06:52:23.820Z,97489.23
2019-04-28T06:53:15.742Z,97483.75
2019-04-28T06:54:06.533Z,97496.95
2019-04-28T06:54:56.997Z,97496.80
2019-04-28T06:55:47.909Z,97501.77
2019-04-28T06:56:38.762Z,97502.11
2019-04-28T06:57:29.461Z,97512.82
2019-04-28T06:58:20.424Z,97494.52
2019-04-28T06:59:11.477Z,97502.48
2019-04-28T07:00:01.816Z,97497.00
2019-04-28T07:00:52.511Z,97503.86
2019-04-28T07:01:43.645Z,97497.81
2019-04-28T07:02:33.689Z,97498.16
2019-04-28T07:03:24.590Z,97498.97
2019-04-28T07:04:15.799Z,97499.74
2019-04-28T07:05:05.948Z,97498.97
2019-04-28T07:05:56.026Z,97493.70
2019-04-28T07:06:47.425Z,97500.34
2019-04-28T07:07:38.051Z,97507.96
2019-04-28T07:08:28.607Z,97518.14
2019-04-28T07:09:18.980Z,97491.86
2019-04-28T07:10:10.064Z,97503.38
2019-04-28T07:11:00.085Z,97497.00
2019-04-28T07:11:50.711Z,97503.86
2019-04-28T07:12:41.090Z,97503.30
2019-04-28T07:13:33.488Z,97509.58
2019-04-28T07:14:24.251Z,97505.73
2019-04-28T07:15:16.043Z,97508.16
2019-04-28T07:16:06.488Z,97504.05
2019-04-28T07:16:57.689Z,97510.08
2019-04-28T07:17:47.950Z,97507.59
2019-04-28T07:18:38.750Z,97508.37
2019-04-28T07:19:29.006Z,97507.59
2019-04-28T07:20:41.572Z,97508.63
2019-04-28T07:21:38.512Z,97508.06
2019-04-28T07:22:30.425Z,97508.87
2019-04-28T07:23:22.752Z,97507.50
2019-04-28T07:24:13.456Z,97521.45
2019-04-28T07:25:03.924Z,97512.42
2019-04-28T07:25:54.064Z,97495.42
2019-04-28T07:26:44.926Z,97506.94
2019-04-28T07:27:35.816Z,97506.55
2019-04-28T07:28:26.851Z,97490.60
2019-04-28T07:29:17.219Z,97495.99
2019-04-28T07:30:07.351Z,97499.95
2019-04-28T07:30:59.433Z,97498.98
2019-04-28T07:31:50.145Z,97500.27
2019-04-28T07:32:40.522Z,97496.90
2019-04-28T07:33:36.231Z,97500.05
2019-04-28T07:34:21.768Z,97499.39
2019-04-28T07:35:12.566Z,97497.15
2019-04-28T07:36:03.129Z,97503.34
2019-04-28T07:36:53.693Z,97500.05
2019-04-28T07:37:44.377Z,97495.63
2019-04-28T07:38:34.325Z,97510.11
2019-04-28T07:39:24.607Z,97497.77
2019-04-28T07:40:15.242Z,97496.74
2019-04-28T07:41:05.477Z,97495.38
2019-04-28T07:41:55.649Z,97507.45
2019-04-28T07:42:47.213Z,97500.92
2019-04-28T07:43:37.852Z,97497.37
2019-04-28T07:44:29.342Z,97497.15
2019-04-28T07:45:20.506Z,97500.77
2019-04-28T07:46:11.467Z,97492.54
2019-04-28T07:47:02.178Z,97496.97
2019-04-28T07:47:54.211Z,97500.52
2019-04-28T07:48:45.499Z,97504.16
2019-04-28T07:49:35.641Z,97497.31
2019-04-28T07:50:26.444Z,97495.94
2019-04-28T07:51:17.576Z,97497.77
2019-04-28T07:52:19.210Z,97501.33
2019-04-28T07:53:13.626Z,97501.27
2019-04-28T07:54:08.487Z,97497.86
2019-04-28T07:54:59.104Z,97498.58
2019-04-28T07:55:49.660Z,97503.19
2019-04-28T07:56:40.290Z,97499.55
2019-04-28T07:57:31.438Z,97499.95
2019-04-28T07:58:21.978Z,97501.50
2019-04-28T07:59:12.410Z,97503.83
2019-04-28T08:00:03.823Z,97514.14
2019-04-28T08:00:55.301Z,97498.50
2019-04-28T08:01:46.658Z,97509.06
2019-04-28T08:02:36.762Z,97506.56
2019-04-28T08:03:27.105Z,97510.92
2019-04-28T08:04:18.068Z,97506.56
2019-04-28T08:05:08.307Z,97506.25
2019-04-28T08:05:58.886Z,97504.63
2019-04-28T08:06:49.180Z,97518.00
2019-04-28T08:07:40.152Z,97510.58
2019-04-28T08:08:31.122Z,97515.19
2019-04-28T08:09:23.123Z,97514.88
2019-04-28T08:10:13.635Z,97518.09
2019-04-28T08:11:07.568Z,97517.52
2019-04-28T08:11:57.741Z,97510.66
2019-04-28T08:12:49.240Z,97515.84
2019-04-28T08:13:39.062Z,97511.94
2019-04-28T08:14:30.027Z,97510.81
2019-04-28T08:15:20.774Z,97518.17
2019-04-28T08:16:12.504Z,97513.15
2019-04-28T08:17:03.503Z,97510.41
2019-04-28T08:17:53.945Z,97508.96
2019-04-28T08:18:45.104Z,97508.30
2019-04-28T08:19:35.378Z,97514.75
2019-04-28T08:20:26.433Z,97516.30
2019-04-28T08:21:17.185Z,97519.44
2019-04-28T08:22:08.059Z,97516.49
2019-04-28T08:22:58.842Z,97504.31
2019-04-28T08:23:49.221Z,97509.05
2019-04-28T08:24:39.711Z,97505.91
2019-04-28T08:25:30.334Z,97506.30
2019-04-28T08:26:21.949Z,97516.86
2019-04-28T08:27:12.858Z,97513.34
2019-04-28T08:28:03.222Z,97513.52
2019-04-28T08:28:53.663Z,97499.61
2019-04-28T08:29:44.758Z,97500.81
2019-04-28T08:30:36.369Z,97507.03
2019-04-28T08:31:32.999Z,97503.05
2019-04-28T08:32:36.726Z,97500.20
2019-04-28T08:33:36.880Z,97505.70
2019-04-28T08:34:28.216Z,97512.48
2019-04-28T08:35:18.609Z,97513.61
2019-04-28T08:36:09.168Z,97510.88
2019-04-28T08:36:59.469Z,97505.38
2019-04-28T08:37:50.275Z,97491.40
2019-04-28T08:38:41.490Z,97503.76
2019-04-28T08:39:32.294Z,97504.32
2019-04-28T08:40:23.565Z,97498.62
2019-04-28T08:41:15.532Z,97503.30
2019-04-28T08:42:06.008Z,97498.05
2019-04-28T08:42:56.626Z,97494.25
2019-04-28T08:43:47.116Z,97493.94
2019-04-28T08:44:37.669Z,97499.64
2019-04-28T08:45:29.713Z,97499.00
2019-04-28T08:46:20.404Z,97498.64
2019-04-28T08:47:10.859Z,97499.14
2019-04-28T08:48:01.780Z,97498.81
2019-04-28T08:48:52.406Z,97492.16
2019-04-28T08:49:43.878Z,97487.72
2019-04-28T08:50:35.005Z,97496.77
2019-04-28T08:51:26.229Z,97498.95
2019-04-28T08:52:18.327Z,97497.02
2019-04-28T08:53:09.256Z,97497.26
2019-04-28T08:53:59.989Z,97491.98
2019-04-28T08:54:51.507Z,97495.67
2019-04-28T08:55:42.331Z,97496.97
2019-04-28T08:56:33.025Z,97496.78
2019-04-28T08:57:23.682Z,97504.03
2019-04-28T08:58:13.632Z,97495.35
2019-04-28T08:59:05.039Z,97498.23
2019-04-28T08:59:55.512Z,97505.48
2019-04-28T09:00:45.606Z,97499.55
2019-04-28T09:01:36.742Z,97499.69
2019-04-28T09:02:27.651Z,97490.22
2019-04-28T09:03:17.984Z,97496.66
2019-04-28T09:04:15.157Z,97490.73
2019-04-28T09:04:58.082Z,97496.59
2019-04-28T09:05:49.310Z,97483.30
2019-04-28T09:06:41.540Z,97491.47
2019-04-28T09:07:32.078Z,97489.98
2019-04-28T09:08:22.510Z,97495.72
2019-04-28T09:09:16.998Z,97499.28
2019-04-28T09:10:07.208Z,97491.27
2019-04-28T09:10:58.425Z,97496.20
2019-04-28T09:11:49.017Z,97495.64
2019-04-28T09:12:40.695Z,97499.77
2019-04-28T09:13:32.130Z,97505.72
2019-04-28T09:14:23.265Z,97504.09
2019-04-28T09:15:14.475Z,97502.97
2019-04-28T09:16:05.547Z,97507.33
2019-04-28T09:16:56.550Z,97506.20
2019-04-28T09:17:47.082Z,97502.31
2019-04-28T09:18:38.769Z,97510.20
2019-04-28T09:19:29.418Z,97505.28
2019-04-28T09:20:20.282Z,97495.89
2019-04-28T09:21:10.747Z,97506.89
2019-04-28T09:22:01.378Z,97502.77
2019-04-28T09:22:52.439Z,97506.66
2019-04-28T09:23:44.576Z,97507.81
2019-04-28T09:24:34.662Z,97497.95
2019-04-28T09:25:25.378Z,97499.56
2019-04-28T09:26:16.272Z,97495.44
2019-04-28T09:27:06.826Z,97503.91
2019-04-28T09:27:58.124Z,97498.08
2019-04-28T09:28:49.465Z,97503.46
2019-04-28T09:29:40.325Z,97499.82
2019-04-28T09:30:31.463Z,97507.39
2019-04-28T09:31:22.367Z,97502.38
2019-04-28T09:32:12.674Z,97501.92
2019-04-28T09:33:03.801Z,97504.36
2019-04-28T09:33:55.281Z,97505.38
2019-04-28T09:34:45.267Z,97499.55
2019-04-28T09:35:35.443Z,97499.55
2019-04-28T09:36:26.419Z,97507.68
2019-04-28T09:37:18.302Z,97502.42
2019-04-28T09:38:08.524Z,97495.45
2019-04-28T09:38:59.294Z,97495.45
2019-04-28T09:39:53.095Z,97489.95
2019-04-28T09:40:44.039Z,97481.91
2019-04-28T09:41:34.404Z,97486.39
2019-04-28T09:42:49.320Z,97487.53
2019-04-28T09:44:05.087Z,97484.53
2019-04-28T09:44:55.675Z,97490.61
2019-04-28T09:45:52.650Z,97480.41
2019-04-28T09:46:43.407Z,97474.58
2019-04-28T09:47:33.536Z,97484.33
2019-04-28T09:48:24.330Z,97482.27
2019-04-28T09:49:15.050Z,97483.23
2019-04-28T09:50:07.028Z,97478.86
2019-04-28T09:50:57.142Z,97472.61
2019-04-28T09:51:48.612Z,97468.84
2019-04-28T09:52:39.133Z,97479.41
2019-04-28T09:53:30.045Z,97494.45
2019-04-28T09:54:20.841Z,97485.27
2019-04-28T09:55:11.509Z,97480.23
2019-04-28T09:56:02.211Z,97471.17
2019-04-28T09:56:56.806Z,97485.17
2019-04-28T09:57:42.818Z,97472.79
2019-04-28T09:58:32.967Z,97478.74
2019-04-28T09:59:23.783Z,97472.43
2019-04-28T10:00:14.431Z,97477.61
2019-04-28T10:01:06.655Z,97480.84
2019-04-28T10:01:57.460Z,97471.44
2019-04-28T10:02:48.082Z,97468.23
2019-04-28T10:03:38.630Z,97480.73
2019-04-28T10:04:41.041Z,97479.14
2019-04-28T10:05:20.016Z,97484.07
2019-04-28T10:06:11.219Z,97485.14
2019-04-28T10:07:01.925Z,97470.22
2019-04-28T10:07:52.904Z,97454.72
2019-04-28T10:08:43.076Z,97459.09
2019-04-28T10:09:34.472Z,97452.09
2019-04-28T10:10:24.684Z,97454.28
2019-04-28T10:11:15.605Z,97462.77
2019-04-28T10:12:06.626Z,97450.70
2019-04-28T10:12:58.947Z,97459.55
2019-04-28T10:13:49.447Z,97461.37
2019-04-28T10:14:40.149Z,97452.19